Airfield :
LOGIN :

Register | Disclaimer

   EN    FR    IT 

 










Legend :    VFR   Marginal VFR   IFR   Intensive IFR   Very Intensive IFR
Visi :
Ceiling :
>= 8 km
>= 3000ft
5 to 8 km
1000 to 3000 ft
1500m to 5 km
500 to 1000 ft
800 to 1500m
200 to 500 ft
< 800m
< 200 ft
Symbols :   Thunderstorms  Fog  Heavy snow  Heavy precipitations  Wind > 20 kt
SIGMETs :     Misc.  Thunderstorms  Icing  Turbulence  Mountain Waves  Volcanic Ashes






- Airport Elevation : 584 ft


LFPV - Villacoublay Vélizy

CURRENT METAR :
  • 100930Z AUTO 19006KT CAVOK 03/01 Q1027 NOSIG

EXPIRED METARs :
  • 100900Z AUTO 20005KT CAVOK 03/01 Q1026 NOSIG
  • 100830Z AUTO 19004KT CAVOK 02/01 Q1027 NOSIG
  • 100800Z AUTO 20003KT 170V240 CAVOK 02/00 Q1027 NOSIG
  • 100730Z AUTO 19005KT CAVOK 02/01 Q1027 NOSIG
  • 100700Z AUTO 20004KT CAVOK 02/00 Q1027 NOSIG

TAF TAF LFPV
Valid from the 10 at 09:00 until the 11 at 09:00 UTC


100800Z 1009/1109 19003KT CAVOK
TEMPO 1015/1018 18010G20KT
BECMG 1017/1019 BKN008
TEMPO 1019/1103 19010G30KT
TEMPO 1101/1105 4000 RA
BECMG 1103/1105 BKN004
BECMG 1107/1109 25005KT



MET'MAP, your aeronautical weather chart ! - Copyright ORBIFLY December 2007 - Disclaimer

ORBIFLY MET'MAP TEAM :

Programming & Development : Alexandra Zaïnal
Concept & original design : Baudouin d'Aumeries
Assistance for programming : Marc-Olivier Méhu
Technical & hardware support : Manuel Goepfert

Contact : metmap@orbifly.com




SOURCES & CREDITS :

   NOAA